createdAt,value
2019-01-06T00:02:45.879Z,101566.13
2019-01-06T00:05:35.499Z,101565.53
2019-01-06T00:08:15.961Z,101563.24
2019-01-06T00:11:14.594Z,101565.01
2019-01-06T00:14:02.827Z,101560.39
2019-01-06T00:16:47.485Z,101567.21
2019-01-06T00:19:46.318Z,101570.66
2019-01-06T00:22:34.906Z,101574.55
2019-01-06T00:25:24.599Z,101580.05
2019-01-06T00:28:25.835Z,101580.98
2019-01-06T00:31:18.347Z,101574.62
2019-01-06T00:34:20.167Z,101578.19
2019-01-06T00:37:08.766Z,101576.69
2019-01-06T00:39:58.402Z,101581.55
2019-01-06T00:42:57.258Z,101593.69
2019-01-06T00:46:05.296Z,101584.02
2019-01-06T00:48:54.923Z,101583.32
2019-01-06T00:51:57.698Z,101579.03
2019-01-06T00:54:59.639Z,101582.39
2019-01-06T00:58:01.573Z,101588.80
2019-01-06T01:00:57.321Z,101594.30
2019-01-06T01:03:46.016Z,101591.78
2019-01-06T01:06:42.028Z,101589.54
2019-01-06T01:09:48.387Z,101592.47
2019-01-06T01:12:36.977Z,101590.98
2019-01-06T01:15:33.006Z,101594.16
2019-01-06T01:18:25.702Z,101598.92
2019-01-06T01:21:27.583Z,101598.77
2019-01-06T01:24:17.596Z,101607.89
2019-01-06T01:27:05.874Z,101615.17
2019-01-06T01:29:54.566Z,101617.91
2019-01-06T01:32:53.090Z,101623.27
2019-01-06T01:35:48.735Z,101628.59
2019-01-06T01:38:42.784Z,101632.36
2019-01-06T01:41:35.624Z,101626.87
2019-01-06T01:44:25.267Z,101623.30
2019-01-06T01:47:13.754Z,101632.55
2019-01-06T01:50:10.665Z,101635.02
2019-01-06T01:53:01.498Z,101639.27
2019-01-06T01:55:51.091Z,101641.99
2019-01-06T01:58:40.464Z,101650.14
2019-01-06T02:01:49.995Z,101648.79
2019-01-06T02:04:47.914Z,101643.64
2019-01-06T02:07:42.664Z,101648.62
2019-01-06T02:10:32.110Z,101654.92
2019-01-06T02:13:21.762Z,101652.59
2019-01-06T02:16:10.973Z,101652.35
2019-01-06T02:19:03.642Z,101663.55
2019-01-06T02:21:52.057Z,101666.48
2019-01-06T02:24:48.092Z,101665.76
2019-01-06T02:27:55.941Z,101666.06
2019-01-06T02:30:39.995Z,101669.16
2019-01-06T02:33:44.799Z,101668.22
2019-01-06T02:36:43.375Z,101672.73
2019-01-06T02:39:31.629Z,101671.94
2019-01-06T02:42:20.156Z,101666.84
2019-01-06T02:45:06.477Z,101665.31
2019-01-06T02:47:50.504Z,101658.33
2019-01-06T02:50:38.793Z,101663.03
2019-01-06T02:53:20.969Z,101671.38
2019-01-06T02:56:10.577Z,101666.45
2019-01-06T02:59:09.633Z,101667.20
2019-01-06T03:02:11.341Z,101668.55
2019-01-06T03:05:13.366Z,101673.41
2019-01-06T03:08:01.822Z,101673.87
2019-01-06T03:11:03.613Z,101673.31
2019-01-06T03:13:56.729Z,101670.00
2019-01-06T03:16:55.705Z,101660.66
2019-01-06T03:19:45.277Z,101661.95
2019-01-06T03:22:43.921Z,101663.53
2019-01-06T03:25:48.728Z,101656.67
2019-01-06T03:28:43.919Z,101658.05
2019-01-06T03:31:39.625Z,101664.82
2019-01-06T03:34:28.665Z,101673.41
2019-01-06T03:37:33.486Z,101671.63
2019-01-06T03:40:20.237Z,101675.34
2019-01-06T03:43:08.808Z,101667.39
2019-01-06T03:45:57.473Z,101666.36
2019-01-06T03:48:59.501Z,101666.77
2019-01-06T03:51:48.951Z,101669.11
2019-01-06T03:54:50.725Z,101668.48
2019-01-06T03:57:46.403Z,101669.62
2019-01-06T04:00:34.822Z,101665.03
2019-01-06T04:03:36.303Z,101661.95
2019-01-06T04:06:28.905Z,101665.62
2019-01-06T04:09:13.974Z,101663.53
2019-01-06T04:12:22.216Z,101668.71
2019-01-06T04:15:20.773Z,101667.92
2019-01-06T04:18:13.161Z,101670.21
2019-01-06T04:21:12.074Z,101672.84
2019-01-06T04:24:06.692Z,101669.54
2019-01-06T04:26:55.430Z,101670.70
2019-01-06T04:29:48.264Z,101676.34
2019-01-06T04:32:41.046Z,101675.81
2019-01-06T04:35:36.817Z,101689.08
2019-01-06T04:38:25.158Z,101685.02
2019-01-06T04:41:32.997Z,101679.36
2019-01-06T04:44:16.557Z,101680.56
2019-01-06T04:47:24.103Z,101689.81
2019-01-06T04:50:22.639Z,101688.06
2019-01-06T04:53:11.085Z,101689.36
2019-01-06T04:56:13.063Z,101695.66
2019-01-06T04:59:15.748Z,101690.58
2019-01-06T05:02:18.200Z,101692.67
2019-01-06T05:05:06.708Z,101696.86
2019-01-06T05:07:57.290Z,101696.20
2019-01-06T05:10:55.973Z,101703.15
2019-01-06T05:13:44.257Z,101702.34
2019-01-06T05:16:32.670Z,101710.52
2019-01-06T05:19:22.627Z,101714.64
2019-01-06T05:22:11.152Z,101720.28
2019-01-06T05:24:59.446Z,101727.25
2019-01-06T05:28:04.440Z,101722.48
2019-01-06T05:30:54.248Z,101724.20
2019-01-06T05:33:42.685Z,101723.69
2019-01-06T05:36:35.157Z,101723.36
2019-01-06T05:39:25.410Z,101722.70
2019-01-06T05:42:33.414Z,101728.96
2019-01-06T05:45:21.598Z,101730.48
2019-01-06T05:48:23.296Z,101732.61
2019-01-06T05:51:03.768Z,101739.38
2019-01-06T05:53:59.227Z,101735.47
2019-01-06T05:56:54.691Z,101741.38
2019-01-06T05:59:56.032Z,101742.54
2019-01-06T06:02:51.445Z,101747.52
2019-01-06T06:05:43.907Z,101750.44
2019-01-06T06:08:36.295Z,101755.50
2019-01-06T06:11:23.767Z,101760.11
2019-01-06T06:14:16.508Z,101761.19
2019-01-06T06:17:09.194Z,101764.63
2019-01-06T06:20:07.703Z,101771.23
2019-01-06T06:23:00.302Z,101777.16
2019-01-06T06:25:48.895Z,101779.17
2019-01-06T06:28:47.860Z,101783.17
2019-01-06T06:31:52.815Z,101783.09
2019-01-06T06:34:45.631Z,101784.58
2019-01-06T06:37:29.882Z,101795.34
2019-01-06T06:40:25.555Z,101802.45
2019-01-06T06:43:13.411Z,101806.21
2019-01-06T06:46:01.739Z,101803.88
2019-01-06T06:49:00.616Z,101804.77
2019-01-06T06:51:49.186Z,101808.16
2019-01-06T06:54:45.059Z,101812.43
2019-01-06T06:58:38.609Z,101811.65
2019-01-06T07:01:39.205Z,101806.19
2019-01-06T07:04:29.648Z,101809.34
2019-01-06T07:07:18.290Z,101816.30
2019-01-06T07:10:06.974Z,101821.52
2019-01-06T07:12:56.629Z,101826.69
2019-01-06T07:15:44.947Z,101829.36
2019-01-06T07:18:41.564Z,101835.47
2019-01-06T07:21:37.247Z,101839.20
2019-01-06T07:24:25.849Z,101846.28
2019-01-06T07:27:14.757Z,101847.53
2019-01-06T07:30:10.388Z,101847.66
2019-01-06T07:33:00.051Z,101856.80
2019-01-06T07:35:52.769Z,101857.68
2019-01-06T07:38:40.926Z,101862.59
2019-01-06T07:41:30.751Z,101870.80
2019-01-06T07:44:20.920Z,101869.44
2019-01-06T07:47:13.535Z,101870.69
2019-01-06T07:50:03.179Z,101865.65
2019-01-06T07:52:51.735Z,101871.03
2019-01-06T07:55:50.851Z,101874.17
2019-01-06T07:58:39.152Z,101876.91
2019-01-06T08:01:40.810Z,101872.95
2019-01-06T08:04:29.179Z,101880.14
2019-01-06T08:07:17.745Z,101882.03
2019-01-06T08:10:06.124Z,101888.98
2019-01-06T08:13:05.007Z,101891.00
2019-01-06T08:15:53.445Z,101897.48
2019-01-06T08:18:42.441Z,101891.94
2019-01-06T08:21:30.909Z,101891.16
2019-01-06T08:24:26.701Z,101893.67
2019-01-06T08:27:15.293Z,101897.89
2019-01-06T08:30:19.507Z,101895.45
2019-01-06T08:33:18.260Z,101897.87
2019-01-06T08:36:22.919Z,101898.11
2019-01-06T08:39:12.850Z,101899.66
2019-01-06T08:42:02.477Z,101898.11
2019-01-06T08:44:53.011Z,101893.83
2019-01-06T08:47:45.731Z,101899.65
2019-01-06T08:50:39.390Z,101906.91
2019-01-06T08:53:38.600Z,101896.09
2019-01-06T08:56:27.308Z,101908.08
2019-01-06T08:59:32.237Z,101900.23
2019-01-06T09:02:28.361Z,101904.69
2019-01-06T09:05:26.964Z,101906.11
2019-01-06T09:08:16.672Z,101905.34
2019-01-06T09:11:09.386Z,101908.90
2019-01-06T09:13:53.161Z,101911.83
2019-01-06T09:16:41.594Z,101913.30
2019-01-06T09:19:23.686Z,101917.06
2019-01-06T09:22:12.042Z,101928.62
2019-01-06T09:25:15.823Z,101918.42
2019-01-06T09:28:04.084Z,101918.99
2019-01-06T09:31:12.140Z,101922.92
2019-01-06T09:34:03.035Z,101920.11
2019-01-06T09:36:51.898Z,101929.39
2019-01-06T09:39:40.326Z,101934.67
2019-01-06T09:42:29.982Z,101935.89
2019-01-06T09:45:23.051Z,101935.94
2019-01-06T09:48:21.787Z,101931.37
2019-01-06T09:51:09.059Z,101931.39
2019-01-06T09:53:58.742Z,101929.61
2019-01-06T09:56:54.478Z,101927.77
2019-01-06T10:00:02.442Z,101930.82
2019-01-06T10:03:04.064Z,101928.20
2019-01-06T10:05:52.942Z,101931.30
2019-01-06T10:08:45.694Z,101930.97
2019-01-06T10:11:41.734Z,101925.78
2019-01-06T10:14:30.514Z,101929.34
2019-01-06T10:17:32.538Z,101925.89
2019-01-06T10:20:22.231Z,101926.67
2019-01-06T10:23:15.002Z,101930.97
2019-01-06T10:26:04.779Z,101934.68
2019-01-06T10:29:00.536Z,101933.38
2019-01-06T10:31:50.238Z,101936.73
2019-01-06T10:34:39.921Z,101932.65
2019-01-06T10:37:46.138Z,101929.31
2019-01-06T10:40:26.393Z,101927.41
2019-01-06T10:43:16.292Z,101928.31
2019-01-06T10:46:24.533Z,101928.46
2019-01-06T10:49:16.921Z,101926.68
2019-01-06T10:52:25.060Z,101930.38
2019-01-06T10:55:25.497Z,101925.05
2019-01-06T10:58:20.299Z,101933.80
2019-01-06T11:01:08.934Z,101933.76
2019-01-06T11:04:04.880Z,101934.91
2019-01-06T11:07:06.120Z,101935.01
2019-01-06T11:10:13.923Z,101936.80
2019-01-06T11:13:06.750Z,101936.33
2019-01-06T11:15:57.381Z,101932.39
2019-01-06T11:18:50.033Z,101937.00
2019-01-06T11:21:46.094Z,101926.89
2019-01-06T11:24:51.246Z,101937.58
2019-01-06T11:27:56.376Z,101942.66
2019-01-06T11:30:44.965Z,101945.17
2019-01-06T11:33:34.588Z,101935.37
2019-01-06T11:36:42.789Z,101933.60
2019-01-06T11:39:37.412Z,101923.23
2019-01-06T12:13:12.072Z,101918.72
2019-01-06T12:16:20.193Z,101898.72
2019-01-06T12:19:24.700Z,101915.30
2019-01-06T12:22:20.408Z,101916.72
2019-01-06T12:25:13.085Z,101919.35
2019-01-06T12:28:02.845Z,101918.42
2019-01-06T12:30:51.312Z,101918.33
2019-01-06T12:33:54.442Z,101918.14
2019-01-06T12:37:01.856Z,101920.25
2019-01-06T12:39:58.132Z,101922.86
2019-01-06T12:42:50.808Z,101924.20
2019-01-06T12:45:54.860Z,101920.88
2019-01-06T12:49:08.429Z,101917.23
2019-01-06T12:52:07.479Z,101927.83
2019-01-06T12:54:56.883Z,101926.62
2019-01-06T12:58:01.284Z,101926.94
2019-01-06T13:01:02.331Z,101938.98
2019-01-06T13:04:06.822Z,101944.59
2019-01-06T13:07:12.465Z,101948.73
2019-01-06T13:09:57.486Z,101954.71
2019-01-06T13:12:50.006Z,101953.40
2019-01-06T13:15:43.398Z,101955.97
2019-01-06T13:18:44.558Z,101964.30
2019-01-06T13:21:33.594Z,101967.17
2019-01-06T13:24:34.777Z,101967.47
2019-01-06T13:27:36.026Z,101958.84
2019-01-06T13:30:22.878Z,101967.54
2019-01-06T13:33:23.694Z,101968.31
2019-01-06T13:36:21.680Z,101971.56
2019-01-06T13:39:30.047Z,101968.95
2019-01-06T13:42:32.687Z,101971.61
2019-01-06T13:45:21.274Z,101978.38
2019-01-06T13:48:16.866Z,101986.23
2019-01-06T13:51:16.929Z,101985.33
2019-01-06T13:54:30.151Z,101984.55
2019-01-06T13:57:17.634Z,101988.02
2019-01-06T14:00:06.417Z,101985.14
2019-01-06T14:02:56.244Z,101989.69
2019-01-06T14:05:52.191Z,101993.25
2019-01-06T14:08:42.649Z,101993.30
2019-01-06T14:11:47.102Z,101995.23
2019-01-06T14:14:36.582Z,101997.17
2019-01-06T14:17:26.665Z,102002.19
2019-01-06T14:20:16.951Z,102005.17
2019-01-06T14:23:18.402Z,102006.31
2019-01-06T14:26:06.731Z,102008.92
2019-01-06T14:28:55.252Z,102003.77
2019-01-06T14:32:03.164Z,102005.08
2019-01-06T14:35:02.029Z,102003.98
2019-01-06T14:38:13.387Z,102004.59
2019-01-06T14:41:15.114Z,102007.70
2019-01-06T14:44:17.036Z,102014.41
2019-01-06T14:47:21.650Z,102017.52
2019-01-06T14:50:09.906Z,102016.91
2019-01-06T14:52:59.732Z,102005.56
2019-01-06T14:55:56.862Z,102008.17
2019-01-06T14:58:46.651Z,102013.05
2019-01-06T15:01:39.133Z,102012.59
2019-01-06T15:04:42.378Z,102015.61
2019-01-06T15:07:44.523Z,102017.34
2019-01-06T15:10:33.844Z,102023.53
2019-01-06T15:13:38.384Z,102030.17
2019-01-06T15:16:37.589Z,102028.23
2019-01-06T15:19:36.146Z,102029.35
2019-01-06T15:22:28.667Z,102032.68
2019-01-06T15:25:27.388Z,102025.42
2019-01-06T15:28:13.588Z,102034.52
2019-01-06T15:31:00.147Z,102034.10
2019-01-06T15:33:58.815Z,102035.16
2019-01-06T15:36:51.017Z,102032.75
2019-01-06T15:39:39.571Z,102035.22
2019-01-06T15:42:27.859Z,102033.38
2019-01-06T15:45:17.580Z,102023.88
2019-01-06T15:48:13.443Z,102031.55
2019-01-06T15:51:03.200Z,102030.19
2019-01-06T15:53:51.450Z,102028.80
2019-01-06T15:56:38.473Z,102034.52
2019-01-06T15:59:27.052Z,102027.44
2019-01-06T16:02:28.731Z,102032.89
2019-01-06T16:05:33.717Z,102040.20
2019-01-06T16:08:26.543Z,102048.00
2019-01-06T16:11:19.448Z,102047.27
2019-01-06T16:14:09.075Z,102050.30
2019-01-06T16:16:58.784Z,102052.64
2019-01-06T16:19:47.416Z,102046.38
2019-01-06T16:22:55.237Z,102058.66
2019-01-06T16:25:44.947Z,102056.92
2019-01-06T16:28:43.787Z,102048.59
2019-01-06T16:31:43.010Z,102049.08
2019-01-06T16:34:38.589Z,102043.72
2019-01-06T16:37:26.820Z,102045.38
2019-01-06T16:40:15.632Z,102042.34
2019-01-06T16:43:10.359Z,102051.28
2019-01-06T16:46:24.370Z,102048.72
2019-01-06T16:49:23.884Z,102053.12
2019-01-06T16:52:19.439Z,102048.72
2019-01-06T16:55:10.467Z,102049.66
2019-01-06T16:57:56.182Z,102039.92
2019-01-06T17:00:45.871Z,102043.19
2019-01-06T17:05:48.386Z,102043.19
2019-01-06T17:07:03.630Z,102043.66
2019-01-06T17:10:05.747Z,102042.83
2019-01-06T17:12:55.542Z,102052.14
2019-01-06T17:15:44.165Z,102052.12
2019-01-06T17:18:38.075Z,102046.73
2019-01-06T17:21:27.951Z,102048.58
2019-01-06T17:24:35.535Z,102043.63
2019-01-06T17:27:27.833Z,102048.10
2019-01-06T17:30:22.076Z,102052.86
2019-01-06T17:34:07.540Z,102055.00
2019-01-06T17:44:16.574Z,102054.83
2019-01-06T17:47:23.050Z,102048.27
2019-01-06T17:50:10.818Z,102062.40
2019-01-06T17:53:09.783Z,102054.97
2019-01-06T17:55:58.116Z,102060.20
2019-01-06T17:59:03.283Z,102061.75
2019-01-06T18:02:08.722Z,102059.34
2019-01-06T18:05:10.866Z,102065.69
2019-01-06T18:08:16.154Z,102069.61
2019-01-06T18:11:12.834Z,102070.52
2019-01-06T18:14:02.659Z,102069.08
2019-01-06T18:16:47.726Z,102075.31
2019-01-06T18:19:37.550Z,102080.70
2019-01-06T18:22:36.079Z,102083.34
2019-01-06T18:28:32.036Z,102093.08
2019-01-06T18:42:56.760Z,102096.27
2019-01-06T18:45:42.252Z,102095.85
2019-01-06T18:48:31.038Z,102099.98
2019-01-06T18:51:32.018Z,102093.89
2019-01-06T18:54:17.531Z,102100.91
2019-01-06T18:57:09.418Z,102097.10
2019-01-06T18:59:58.156Z,102096.62
2019-01-06T19:02:48.107Z,102099.36
2019-01-06T19:05:34.109Z,102091.19
2019-01-06T19:08:36.087Z,102095.53
2019-01-06T19:11:48.922Z,102094.22
2019-01-06T19:38:30.334Z,102100.94
2019-01-06T19:41:36.981Z,102100.10
2019-01-06T19:44:39.977Z,102093.69
2019-01-06T19:47:49.818Z,102096.33
2019-01-06T19:51:02.339Z,102090.48
2019-01-06T19:54:00.726Z,102090.25
2019-01-06T19:56:51.978Z,102087.80
2019-01-06T19:59:43.026Z,102086.09
2019-01-06T20:03:03.918Z,102081.89
2019-01-06T20:09:15.021Z,102070.08
2019-01-06T20:12:28.331Z,102076.75
2019-01-06T20:17:54.421Z,102073.46
2019-01-06T20:19:16.576Z,102070.77
2019-01-06T20:22:04.294Z,102072.56
2019-01-06T20:25:13.817Z,102075.78
2019-01-06T20:28:23.381Z,102073.23
2019-01-06T20:31:16.338Z,102073.57
2019-01-06T20:34:24.269Z,102082.22
2019-01-06T20:40:34.817Z,102084.69
2019-01-06T20:43:23.660Z,102088.61
2019-01-06T20:46:26.865Z,102085.11
2019-01-06T20:49:19.623Z,102085.52
2019-01-06T20:52:12.746Z,102085.85
2019-01-06T20:55:10.073Z,102083.41
2019-01-06T20:57:56.796Z,102074.73
2019-01-06T21:00:45.566Z,102075.84
2019-01-06T21:03:38.781Z,102079.81
2019-01-06T21:06:28.541Z,102072.93
2019-01-06T21:09:25.912Z,102074.27
2019-01-06T21:12:40.096Z,102079.97
2019-01-06T21:15:42.810Z,102076.58
2019-01-06T21:18:34.737Z,102078.36
2019-01-06T21:21:49.209Z,102078.24
2019-01-06T21:24:39.113Z,102079.20
2019-01-06T21:27:33.954Z,102080.56
2019-01-06T21:30:34.554Z,102084.95
2019-01-06T21:33:29.002Z,102084.39
2019-01-06T21:36:18.985Z,102081.45
2019-01-06T21:39:13.504Z,102085.16
2019-01-06T21:43:09.427Z,102085.77
2019-01-06T21:49:32.753Z,102089.23
2019-01-06T21:52:56.006Z,102084.27
2019-01-06T21:55:55.586Z,102085.16
2019-01-06T21:58:47.464Z,102084.45
2019-01-06T22:01:46.358Z,102089.23
2019-01-06T22:04:36.175Z,102085.75
2019-01-06T22:07:27.060Z,102089.56
2019-01-06T22:10:21.844Z,102087.80
2019-01-06T22:13:10.890Z,102088.55
2019-01-06T22:15:58.529Z,102088.91
2019-01-06T22:18:57.464Z,102091.45
2019-01-06T22:21:47.444Z,102090.15
2019-01-06T22:24:52.290Z,102084.22
2019-01-06T22:27:40.870Z,102088.19
2019-01-06T22:30:39.272Z,102081.75
2019-01-06T22:33:38.274Z,102084.88
2019-01-06T22:36:26.381Z,102087.90
2019-01-06T22:39:32.415Z,102077.20
2019-01-06T22:42:34.244Z,102084.89
2019-01-06T22:45:33.771Z,102089.30
2019-01-06T22:48:29.460Z,102086.56
2019-01-06T22:51:28.335Z,102090.36
2019-01-06T22:54:16.966Z,102091.22
2019-01-06T22:57:05.616Z,102088.70
2019-01-06T23:00:07.770Z,102087.78
2019-01-06T23:03:06.497Z,102085.64
2019-01-06T23:06:11.369Z,102085.73
2019-01-06T23:08:59.695Z,102081.19
2019-01-06T23:11:58.630Z,102086.27
2019-01-06T23:14:47.282Z,102085.94
2019-01-06T23:17:34.179Z,102083.53
2019-01-06T23:20:23.002Z,102081.87
2019-01-06T23:23:16.199Z,102085.52
2019-01-06T23:26:04.871Z,102088.19
2019-01-06T23:28:54.959Z,102088.42
2019-01-06T23:31:38.535Z,102081.19
2019-01-06T23:34:27.300Z,102089.38
2019-01-06T23:37:13.167Z,102085.40
2019-01-06T23:40:01.540Z,102084.92
2019-01-06T23:43:06.451Z,102090.89
2019-01-06T23:45:56.989Z,102091.02
2019-01-06T23:48:36.487Z,102089.23
2019-01-06T23:51:29.346Z,102089.44
2019-01-06T23:54:19.086Z,102096.03
2019-01-06T23:57:23.893Z,102098.25
